Chadstone Weather > Observations for 20/09/20

Select Day:



Observations
Time Temp Hum DP Wind Gust Dir Rain >9am Press
C % C kph kph mm hPa
00:00 20.7 65 13.9 9.9 33.1 NNE 0.0 1016.4
00:10 20.9 64 13.8 17.0 30.6 NNE 0.0 1016.3
00:20 20.9 64 13.8 10.5 22.0 NNE 0.0 1016.3
00:30 20.8 64 13.8 14.0 24.5 N 0.0 1016.3
00:40 20.6 64 13.6 13.7 28.1 N 0.0 1016.2
00:50 20.5 65 13.7 14.6 35.6 NNW 0.0 1016.1
01:00 20.4 65 13.6 17.4 35.6 NNW 0.0 1016.2
01:10 20.2 66 13.7 15.7 29.5 NNE 0.0 1016.2
01:20 20.1 67 13.8 16.1 30.6 NNE 0.0 1015.9
01:30 20.0 68 13.9 15.1 30.6 N 0.0 1015.9
01:40 19.9 69 14.1 13.0 28.1 N 0.0 1015.7
01:50 19.8 70 14.2 12.7 29.5 NNW 0.0 1015.1
02:00 19.7 70 14.1 10.8 19.4 NNW 0.0 1015.0
02:10 19.6 71 14.2 9.3 22.0 NNE 0.0 1014.8
02:20 19.4 71 14.0 9.0 17.3 N 0.0 1014.6
02:30 19.3 72 14.1 8.6 23.4 NNE 0.0 1014.5
02:40 19.4 71 14.0 12.5 27.0 ENE 0.0 1014.4
02:50 19.4 72 14.2 15.5 29.5 N 0.0 1014.3
03:00 19.3 73 14.4 10.2 23.4 NNE 0.0 1014.0
03:10 19.1 73 14.2 13.6 33.1 NNE 0.0 1013.6
03:20 19.1 73 14.2 13.4 27.0 NNW 0.0 1013.3
03:30 19.0 73 14.1 12.6 25.6 N 0.0 1013.0
03:40 19.0 73 14.1 15.3 29.5 N 0.0 1012.7
03:50 19.0 73 14.1 14.6 28.1 NNW 0.0 1012.6
04:00 18.9 74 14.2 12.9 25.6 NNE 0.0 1012.5
04:10 18.9 74 14.2 12.0 28.1 ENE 0.0 1012.3
04:20 18.8 75 14.3 11.9 25.6 N 0.0 1012.3
04:30 18.8 75 14.3 13.8 24.5 NNE 0.0 1012.2
04:40 18.7 76 14.4 14.3 29.5 NE 0.0 1012.2
04:50 18.5 77 14.4 12.8 31.7 NNE 0.0 1012.2
05:00 18.3 79 14.6 12.2 24.5 NNE 0.0 1012.3
05:10 18.2 79 14.5 14.5 31.7 ENE 0.0 1012.1
05:20 18.1 80 14.6 10.3 19.4 N 0.0 1012.2
05:30 18.0 81 14.7 10.8 19.4 NNE 0.0 1012.2
05:40 18.0 81 14.7 7.8 19.4 NNE 0.0 1012.2
05:50 18.0 81 14.7 6.9 17.3 NNE 0.0 1012.2
06:00 17.9 82 14.8 7.0 14.8 NNE 0.0 1012.3
06:10 17.8 82 14.7 8.0 17.3 N 0.0 1012.3
06:20 17.9 82 14.8 6.9 13.3 NNE 0.0 1012.3
06:30 17.8 82 14.7 8.5 13.3 N 0.0 1012.3
06:40 17.8 82 14.7 8.0 18.4 NNE 0.0 1012.2
06:50 17.8 82 14.7 7.7 18.4 NE 0.0 1012.5
07:00 17.8 82 14.7 8.8 19.4 NNE 0.0 1012.6
07:10 17.8 82 14.7 10.2 19.4 N 0.0 1012.7
07:20 17.7 83 14.8 7.0 18.4 N 0.0 1012.8
07:30 17.6 84 14.9 7.0 12.2 NNW 0.0 1012.8
07:40 17.6 84 14.9 5.4 11.2 W 0.0 1012.9
07:50 17.7 83 14.8 12.4 31.7 N 0.0 1012.7
08:00 17.9 82 14.8 11.6 24.5 N 0.0 1012.7
08:10 18.0 81 14.7 16.1 28.1 NNW 0.0 1012.5
08:20 18.0 81 14.7 15.8 27.0 NNE 0.0 1012.4
08:30 18.5 79 14.8 16.6 31.7 N 0.0 1012.3
08:40 18.8 78 14.9 12.8 30.6 NNW 0.0 1012.2
08:50 18.9 76 14.6 15.7 33.1 NNW 0.0 1012.2
09:00 18.7 76 14.4 16.7 28.1 NNW 0.0 1012.0
09:10 19.0 75 14.5 10.5 27.0 NW 0.0 1011.9
09:20 19.0 74 14.3 12.8 30.6 NNW 0.0 1012.1
09:30 19.4 69 13.6 19.5 42.8 NNW 0.0 1011.8
09:40 19.9 67 13.6 16.4 29.5 NNW 0.0 1011.8
09:50 20.1 65 13.3 15.1 33.1 N 0.0 1011.7
10:00 20.4 64 13.4 15.8 28.1 NNW 0.0 1011.8
10:10 20.4 63 13.1 18.0 36.7 NNW 0.0 1011.8
10:20 20.8 63 13.5 15.1 28.1 NNW 0.0 1011.7
10:30 21.0 60 13.0 20.3 37.8 N 0.0 1011.7
10:40 20.6 61 12.8 21.2 36.7 NNW 0.0 1011.6
10:50 21.2 59 12.9 20.0 39.2 NNW 0.0 1011.5
11:00 21.1 59 12.8 24.4 41.8 N 0.0 1011.2
11:10 21.3 57 12.5 21.7 41.8 NNW 0.0 1011.3
11:20 21.8 58 13.2 17.9 35.6 NW 0.0 1011.2
11:30 21.9 57 13.0 20.5 37.8 NW 0.0 1010.9
11:40 22.0 55 12.6 21.4 39.2 N 0.0 1011.1
11:50 22.2 55 12.7 19.0 35.6 NNW 0.0 1011.2
12:00 22.2 55 12.7 15.8 23.4 WNW 0.0 1011.1
12:10 22.2 55 12.7 15.8 23.4 WNW 0.0 1011.0
12:20 22.2 55 12.7 15.8 23.4 WNW 0.0 1011.1
12:30 22.2 55 12.7 15.8 23.4 WNW 0.0 1011.2
12:40 22.2 55 12.7 15.8 23.4 WNW 0.0 1011.2
12:50 22.2 55 12.7 15.8 23.4 WNW 0.0 1011.3
13:00 22.2 55 12.7 15.8 23.4 WNW 0.0 1011.4
13:10 22.2 55 12.7 15.8 23.4 WNW 0.0 1011.2
13:20 22.2 55 12.7 15.8 23.4 WNW 0.0 1010.9
13:30 22.2 55 12.7 15.8 23.4 WNW 0.0 1010.9
13:40 22.2 55 12.7 15.8 23.4 WNW 0.0 1010.8
13:50 22.2 55 12.7 15.8 23.4 WNW 0.0 1010.7
14:00 22.2 55 12.7 15.8 23.4 WNW 0.0 1010.6
14:10 23.2 52 12.8 23.4 27.0 N 0.0 1010.6
14:20 23.2 52 12.8 23.4 27.0 N 0.0 1010.6
14:30 23.2 52 12.8 23.4 27.0 N 0.0 1010.5
14:40 23.2 52 12.8 23.4 27.0 N 0.0 1010.5
14:50 23.2 52 12.8 23.4 27.0 N 0.0 1010.4
15:00 23.2 52 12.8 23.4 27.0 N 0.0 1010.3
15:10 23.2 52 12.8 23.4 27.0 N 0.0 1010.3
15:20 23.2 52 12.8 23.4 27.0 N 0.0 1010.4
15:30 23.2 52 12.8 23.4 27.0 N 0.0 1010.4
15:40 23.2 52 12.8 23.4 27.0 N 0.0 1010.3
15:50 23.2 52 12.8 23.4 27.0 N 0.0 1010.4
16:00 23.2 52 12.8 23.4 27.0 N 0.0 1010.3
16:10 23.2 52 12.8 23.4 27.0 N 0.0 1010.2
16:20 23.2 52 12.8 23.4 27.0 N 0.0 1010.4
16:30 23.2 52 12.8 23.4 27.0 N 0.0 1010.6
16:40 23.2 52 12.8 23.4 27.0 N 0.0 1010.7
16:50 23.2 52 12.8 23.4 27.0 N 0.0 1010.6
17:00 23.2 52 12.8 23.4 27.0 N 0.0 1010.6
17:10 23.2 52 12.8 23.4 27.0 N 0.0 1010.8
17:20 23.2 52 12.8 23.4 27.0 N 0.0 1010.9
17:30 23.2 52 12.8 23.4 27.0 N 0.0 1010.8
17:40 23.2 52 12.8 23.4 27.0 N 0.0 1010.8
17:50 23.2 52 12.8 23.4 27.0 N 0.0 1010.8
18:00 23.2 52 12.8 23.4 27.0 N 0.0 1010.9
18:10 23.2 52 12.8 23.4 27.0 N 0.0 1010.6
18:20 23.2 52 12.8 23.4 27.0 N 0.0 1010.8
18:30 23.2 52 12.8 23.4 27.0 N 0.0 1010.8
18:40 23.2 52 12.8 23.4 27.0 N 0.0 1010.6
18:50 23.2 52 12.8 23.4 27.0 N 0.0 1010.7
19:00 23.2 52 12.8 23.4 27.0 N 0.0 1010.9
19:10 23.2 52 12.8 23.4 27.0 N 0.0 1011.0
19:20 23.2 52 12.8 23.4 27.0 N 0.0 1010.8
19:30 23.2 52 12.8 23.4 27.0 N 0.0 1010.8
19:40 23.2 52 12.8 23.4 27.0 N 0.0 1010.6
19:50 23.2 52 12.8 23.4 27.0 N 0.0 1010.7
20:00 23.2 52 12.8 23.4 27.0 N 0.0 1010.5
20:10 23.2 52 12.8 23.4 27.0 N 0.0 1010.3
20:20 23.2 52 12.8 23.4 27.0 N 0.0 1010.2
20:30 23.2 52 12.8 23.4 27.0 N 0.0 1010.0
20:40 23.2 52 12.8 23.4 27.0 N 0.0 1010.1
20:50 19.3 70 13.7 11.6 19.4 N 0.0 1009.9
21:00 19.3 70 13.7 14.3 19.4 N 0.0 1010.0
21:10 19.3 70 13.7 14.7 19.4 N 0.0 1010.2
21:20 19.3 70 13.7 14.7 19.4 N 0.0 1010.2
21:30 19.3 70 13.7 14.7 19.4 N 0.0 1010.1
21:40 19.3 70 13.7 14.7 19.4 N 0.0 1010.0
21:50 19.3 70 13.7 14.7 19.4 N 0.0 1010.0
22:00 19.3 70 13.7 14.7 19.4 N 0.0 1010.2
22:10 19.5 71 14.1 17.2 25.6 NE 0.0 1010.2
22:20 19.6 71 14.2 21.3 39.2 N 0.0 1010.2
22:30 19.6 71 14.2 19.1 39.2 NNE 0.0 1010.4
22:40 19.6 71 14.2 16.8 31.7 N 0.0 1010.5
22:50 19.5 72 14.3 12.0 20.9 N 0.0 1010.4
23:00 19.4 72 14.2 12.6 22.0 N 0.0 1010.5
23:10 19.3 72 14.1 14.5 27.0 N 0.0 1010.5
23:20 19.3 72 14.1 12.2 24.5 NNE 0.0 1010.5
23:30 19.4 72 14.2 14.7 25.6 NW 0.0 1010.3
23:40 19.6 71 14.2 15.9 30.6 N 0.0 1010.3
23:50 19.6 70 14.0 16.7 27.0 NNW 0.0 1010.2